Hauptseite
METAR-TAF:

METAR-TAF

Flughäfen :

Flughafen Lelystad

Lelystad, Niederlande

Breite: 52-27-37N, Länge: 005-31-38E, Höhe: -4 m

Beobachtung

Neuester Wetterbericht von vor 13 Minuten, um 10:55 UTC
Wind 4 kt aus Ost/Nordost, variierte zwischen Nord/Nordost und Ost
Temperatur 20°C
Luftfeuchtigkeit 53%
Luftdruck 1025 hPa
Sichtweite: 1700 m

METAR: EHLE 081055Z AUTO 06004KT 030V100 1700 NSC 20/10 Q1025 NOSIG

Zeit: 13:08 (11:08 UTC)

Prognose

Neuester Wetterbericht von vor 6 Stunden und 39 Minuten, um 04:29 UTC
Gültige Prognose vom 08 um 06 UTC bis 09 um 12 UTC
Wind 4 kt aus Ost/Nordost
Sichtweite 10 km oder mehr
keine Wolken unter 1500 m und keine Kumulonimbus oder Gewitterwolken
Übergehend zu
vom 08 um 10 UTC bis 08 um 13 UTC
Wind 5 kt aus Nord/Nordwest

TAF: EHLE 080429Z 0806/0912 06004KT CAVOK BECMG 0810/0813 34005KT

Wetterbeobachtungen und Prognosen von mehr als 4000 Flughäfen (METAR und TAF Bericht).

Die verfügbaren Stationen werden durch gelbe und rote Markierungen auf der Karte dargestellt.

Führen Sie die Maus auf sie, um den Namen der Station zu sehen.

Darauf klicken, um die Beobachtung von Wetterbeobachtungen und Prognosen zu sehen.

Um die Karte zu ändern : klicken Sie auf den grünen Tasten mit einem schwarzen Kreuz Zum Vergrößern, auf den grünen Button mit einem Gedankenstrich zu verkleinern, oder auf die grünen Pfeile für benachbarte Karten.


METAR-TAF: